sensor_id;sensor_type;location;lat;lon;timestamp;P1;durP1;ratioP1;P2;durP2;ratioP2
52768;SDS011;40471;44.534;18.644;2023-11-21T00:01:57;153.77;;;88.50;;
52768;SDS011;40471;44.534;18.644;2023-11-21T00:04:23;174.00;;;101.22;;
52768;SDS011;40471;44.534;18.644;2023-11-21T00:06:49;154.73;;;93.80;;
52768;SDS011;40471;44.534;18.644;2023-11-21T00:09:15;137.75;;;80.85;;
52768;SDS011;40471;44.534;18.644;2023-11-21T00:11:43;153.05;;;90.95;;
52768;SDS011;40471;44.534;18.644;2023-11-21T00:17:31;96.40;;;57.35;;
52768;SDS011;40471;44.534;18.644;2023-11-21T00:19:57;101.50;;;65.77;;
52768;SDS011;40471;44.534;18.644;2023-11-21T00:22:23;129.03;;;69.10;;
52768;SDS011;40471;44.534;18.644;2023-11-21T00:24:49;201.80;;;119.67;;
52768;SDS011;40471;44.534;18.644;2023-11-21T00:27:15;177.90;;;116.18;;
52768;SDS011;40471;44.534;18.644;2023-11-21T00:29:40;181.83;;;115.17;;
52768;SDS011;40471;44.534;18.644;2023-11-21T00:32:06;218.60;;;132.80;;
52768;SDS011;40471;44.534;18.644;2023-11-21T00:34:32;173.30;;;110.53;;
52768;SDS011;40471;44.534;18.644;2023-11-21T00:36:59;160.13;;;100.70;;
52768;SDS011;40471;44.534;18.644;2023-11-21T00:39:25;99.23;;;67.20;;
52768;SDS011;40471;44.534;18.644;2023-11-21T00:41:51;115.90;;;65.50;;
52768;SDS011;40471;44.534;18.644;2023-11-21T00:44:17;108.43;;;69.57;;
52768;SDS011;40471;44.534;18.644;2023-11-21T00:46:43;133.83;;;76.17;;
52768;SDS011;40471;44.534;18.644;2023-11-21T00:49:09;151.67;;;85.27;;
52768;SDS011;40471;44.534;18.644;2023-11-21T00:51:35;123.37;;;78.93;;
52768;SDS011;40471;44.534;18.644;2023-11-21T00:54:01;136.17;;;80.77;;
52768;SDS011;40471;44.534;18.644;2023-11-21T00:56:27;135.60;;;83.25;;
52768;SDS011;40471;44.534;18.644;2023-11-21T00:58:53;142.60;;;87.55;;
52768;SDS011;40471;44.534;18.644;2023-11-21T01:01:20;153.90;;;85.33;;
52768;SDS011;40471;44.534;18.644;2023-11-21T01:03:48;137.48;;;81.63;;
52768;SDS011;40471;44.534;18.644;2023-11-21T01:06:14;120.07;;;65.30;;
52768;SDS011;40471;44.534;18.644;2023-11-21T01:08:40;146.80;;;85.93;;
52768;SDS011;40471;44.534;18.644;2023-11-21T01:11:06;189.83;;;113.93;;
52768;SDS011;40471;44.534;18.644;2023-11-21T01:13:33;107.20;;;69.35;;
52768;SDS011;40471;44.534;18.644;2023-11-21T01:16:00;100.75;;;66.93;;
52768;SDS011;40471;44.534;18.644;2023-11-21T01:18:26;120.07;;;79.07;;
52768;SDS011;40471;44.534;18.644;2023-11-21T01:20:52;151.10;;;87.63;;
52768;SDS011;40471;44.534;18.644;2023-11-21T01:23:18;131.35;;;79.20;;
52768;SDS011;40471;44.534;18.644;2023-11-21T01:25:44;161.43;;;94.82;;
52768;SDS011;40471;44.534;18.644;2023-11-21T01:28:10;145.90;;;85.90;;
52768;SDS011;40471;44.534;18.644;2023-11-21T01:30:36;172.80;;;102.93;;
52768;SDS011;40471;44.534;18.644;2023-11-21T01:33:02;170.73;;;97.28;;
52768;SDS011;40471;44.534;18.644;2023-11-21T01:35:28;147.87;;;87.37;;
52768;SDS011;40471;44.534;18.644;2023-11-21T01:37:54;194.57;;;115.18;;
52768;SDS011;40471;44.534;18.644;2023-11-21T01:40:20;174.83;;;106.77;;
52768;SDS011;40471;44.534;18.644;2023-11-21T01:42:46;155.87;;;101.27;;
52768;SDS011;40471;44.534;18.644;2023-11-21T01:45:13;186.50;;;102.85;;
52768;SDS011;40471;44.534;18.644;2023-11-21T01:47:39;183.50;;;118.05;;
52768;SDS011;40471;44.534;18.644;2023-11-21T01:50:07;190.43;;;114.75;;
52768;SDS011;40471;44.534;18.644;2023-11-21T01:52:36;199.25;;;114.45;;
52768;SDS011;40471;44.534;18.644;2023-11-21T01:55:04;177.60;;;106.35;;
52768;SDS011;40471;44.534;18.644;2023-11-21T01:57:31;191.55;;;113.47;;
52768;SDS011;40471;44.534;18.644;2023-11-21T01:59:57;194.90;;;114.20;;
52768;SDS011;40471;44.534;18.644;2023-11-21T02:02:40;191.32;;;114.63;;
52768;SDS011;40471;44.534;18.644;2023-11-21T02:05:10;212.20;;;128.25;;
52768;SDS011;40471;44.534;18.644;2023-11-21T02:07:38;204.88;;;126.82;;
52768;SDS011;40471;44.534;18.644;2023-11-21T02:10:07;171.50;;;99.30;;
52768;SDS011;40471;44.534;18.644;2023-11-21T02:12:34;137.25;;;79.35;;
52768;SDS011;40471;44.534;18.644;2023-11-21T02:15:02;129.45;;;79.65;;
52768;SDS011;40471;44.534;18.644;2023-11-21T02:17:30;121.65;;;82.50;;
52768;SDS011;40471;44.534;18.644;2023-11-21T02:19:57;134.85;;;86.47;;
52768;SDS011;40471;44.534;18.644;2023-11-21T02:22:24;167.02;;;99.05;;
52768;SDS011;40471;44.534;18.644;2023-11-21T02:24:55;144.73;;;83.50;;
52768;SDS011;40471;44.534;18.644;2023-11-21T02:27:22;116.18;;;75.22;;
52768;SDS011;40471;44.534;18.644;2023-11-21T02:29:48;161.15;;;97.95;;
52768;SDS011;40471;44.534;18.644;2023-11-21T02:32:14;156.70;;;93.07;;
52768;SDS011;40471;44.534;18.644;2023-11-21T02:34:42;157.85;;;91.63;;
52768;SDS011;40471;44.534;18.644;2023-11-21T02:37:08;173.55;;;90.22;;
52768;SDS011;40471;44.534;18.644;2023-11-21T02:39:35;94.72;;;60.95;;
52768;SDS011;40471;44.534;18.644;2023-11-21T02:42:00;103.40;;;64.33;;
52768;SDS011;40471;44.534;18.644;2023-11-21T02:44:26;130.67;;;75.37;;
52768;SDS011;40471;44.534;18.644;2023-11-21T02:46:52;114.90;;;73.03;;
52768;SDS011;40471;44.534;18.644;2023-11-21T02:49:17;116.03;;;68.70;;
52768;SDS011;40471;44.534;18.644;2023-11-21T02:51:43;80.10;;;49.37;;
52768;SDS011;40471;44.534;18.644;2023-11-21T02:54:09;88.77;;;52.13;;
52768;SDS011;40471;44.534;18.644;2023-11-21T02:56:36;63.88;;;27.42;;
52768;SDS011;40471;44.534;18.644;2023-11-21T02:59:02;77.63;;;43.70;;
52768;SDS011;40471;44.534;18.644;2023-11-21T03:01:28;88.27;;;62.80;;
52768;SDS011;40471;44.534;18.644;2023-11-21T03:03:54;91.27;;;60.50;;
52768;SDS011;40471;44.534;18.644;2023-11-21T03:06:20;116.65;;;61.50;;
52768;SDS011;40471;44.534;18.644;2023-11-21T03:08:46;133.10;;;75.17;;
52768;SDS011;40471;44.534;18.644;2023-11-21T03:11:13;130.05;;;72.68;;
52768;SDS011;40471;44.534;18.644;2023-11-21T03:13:39;92.38;;;54.40;;
52768;SDS011;40471;44.534;18.644;2023-11-21T03:16:08;88.45;;;50.00;;
52768;SDS011;40471;44.534;18.644;2023-11-21T03:18:35;69.68;;;45.53;;
52768;SDS011;40471;44.534;18.644;2023-11-21T03:21:02;82.18;;;55.25;;
52768;SDS011;40471;44.534;18.644;2023-11-21T03:23:28;82.45;;;50.55;;
52768;SDS011;40471;44.534;18.644;2023-11-21T03:25:54;73.00;;;50.27;;
52768;SDS011;40471;44.534;18.644;2023-11-21T03:28:20;82.00;;;50.63;;
52768;SDS011;40471;44.534;18.644;2023-11-21T03:30:45;84.90;;;52.33;;
52768;SDS011;40471;44.534;18.644;2023-11-21T03:33:11;90.37;;;51.93;;
52768;SDS011;40471;44.534;18.644;2023-11-21T03:35:37;78.10;;;48.30;;
52768;SDS011;40471;44.534;18.644;2023-11-21T03:38:03;88.83;;;53.93;;
52768;SDS011;40471;44.534;18.644;2023-11-21T03:40:29;86.97;;;54.03;;
52768;SDS011;40471;44.534;18.644;2023-11-21T03:42:56;72.20;;;45.40;;
52768;SDS011;40471;44.534;18.644;2023-11-21T03:45:22;84.13;;;49.10;;
52768;SDS011;40471;44.534;18.644;2023-11-21T03:47:48;49.00;;;29.73;;
52768;SDS011;40471;44.534;18.644;2023-11-21T03:50:14;51.58;;;31.90;;
52768;SDS011;40471;44.534;18.644;2023-11-21T03:52:40;34.00;;;21.73;;
52768;SDS011;40471;44.534;18.644;2023-11-21T03:55:06;28.77;;;18.57;;
52768;SDS011;40471;44.534;18.644;2023-11-21T03:57:32;30.53;;;15.50;;
52768;SDS011;40471;44.534;18.644;2023-11-21T03:59:57;22.40;;;12.87;;
52768;SDS011;40471;44.534;18.644;2023-11-21T04:02:23;21.37;;;11.87;;
52768;SDS011;40471;44.534;18.644;2023-11-21T04:04:51;11.60;;;9.05;;
52768;SDS011;40471;44.534;18.644;2023-11-21T04:07:16;52.77;;;34.93;;
52768;SDS011;40471;44.534;18.644;2023-11-21T04:09:42;59.57;;;31.23;;
52768;SDS011;40471;44.534;18.644;2023-11-21T04:12:08;56.57;;;30.93;;
52768;SDS011;40471;44.534;18.644;2023-11-21T04:14:34;44.05;;;28.38;;
52768;SDS011;40471;44.534;18.644;2023-11-21T04:17:00;40.77;;;27.70;;
52768;SDS011;40471;44.534;18.644;2023-11-21T04:19:26;56.47;;;33.60;;
52768;SDS011;40471;44.534;18.644;2023-11-21T04:21:52;76.17;;;45.73;;
52768;SDS011;40471;44.534;18.644;2023-11-21T04:24:17;63.70;;;36.27;;
52768;SDS011;40471;44.534;18.644;2023-11-21T04:26:44;49.10;;;28.33;;
52768;SDS011;40471;44.534;18.644;2023-11-21T04:29:09;49.95;;;30.00;;
52768;SDS011;40471;44.534;18.644;2023-11-21T04:31:35;57.27;;;27.40;;
52768;SDS011;40471;44.534;18.644;2023-11-21T04:34:01;44.83;;;29.47;;
52768;SDS011;40471;44.534;18.644;2023-11-21T04:36:29;62.28;;;30.70;;
52768;SDS011;40471;44.534;18.644;2023-11-21T04:38:56;44.30;;;25.23;;
52768;SDS011;40471;44.534;18.644;2023-11-21T04:41:21;45.22;;;26.92;;
52768;SDS011;40471;44.534;18.644;2023-11-21T04:43:47;38.17;;;23.00;;
52768;SDS011;40471;44.534;18.644;2023-11-21T04:46:14;94.93;;;46.40;;
52768;SDS011;40471;44.534;18.644;2023-11-21T04:48:39;109.73;;;59.90;;
52768;SDS011;40471;44.534;18.644;2023-11-21T04:51:05;119.50;;;66.40;;
52768;SDS011;40471;44.534;18.644;2023-11-21T04:53:31;102.50;;;58.60;;
52768;SDS011;40471;44.534;18.644;2023-11-21T04:55:57;86.57;;;55.70;;
52768;SDS011;40471;44.534;18.644;2023-11-21T05:15:07;85.15;;;53.00;;
52768;SDS011;40471;44.534;18.644;2023-11-21T05:17:37;89.80;;;54.13;;
52768;SDS011;40471;44.534;18.644;2023-11-21T05:20:10;70.85;;;41.83;;
52768;SDS011;40471;44.534;18.644;2023-11-21T05:22:37;55.15;;;37.00;;
52768;SDS011;40471;44.534;18.644;2023-11-21T05:25:03;58.57;;;36.23;;
52768;SDS011;40471;44.534;18.644;2023-11-21T05:27:30;47.60;;;27.17;;
52768;SDS011;40471;44.534;18.644;2023-11-21T05:29:56;45.97;;;24.17;;
52768;SDS011;40471;44.534;18.644;2023-11-21T05:32:23;59.88;;;29.13;;
52768;SDS011;40471;44.534;18.644;2023-11-21T05:34:52;52.03;;;29.23;;
52768;SDS011;40471;44.534;18.644;2023-11-21T05:37:17;50.08;;;28.83;;
52768;SDS011;40471;44.534;18.644;2023-11-21T05:39:43;53.03;;;29.37;;
52768;SDS011;40471;44.534;18.644;2023-11-21T05:42:09;72.13;;;29.00;;
52768;SDS011;40471;44.534;18.644;2023-11-21T05:44:36;46.13;;;29.13;;
52768;SDS011;40471;44.534;18.644;2023-11-21T05:49:28;53.80;;;32.75;;
52768;SDS011;40471;44.534;18.644;2023-11-21T05:51:55;54.90;;;32.60;;
52768;SDS011;40471;44.534;18.644;2023-11-21T05:54:21;51.63;;;29.05;;
52768;SDS011;40471;44.534;18.644;2023-11-21T05:56:47;43.63;;;25.65;;
52768;SDS011;40471;44.534;18.644;2023-11-21T05:59:14;54.47;;;31.52;;
52768;SDS011;40471;44.534;18.644;2023-11-21T06:01:39;51.53;;;33.17;;
52768;SDS011;40471;44.534;18.644;2023-11-21T06:04:05;65.13;;;34.80;;
52768;SDS011;40471;44.534;18.644;2023-11-21T06:06:33;46.50;;;29.73;;
52768;SDS011;40471;44.534;18.644;2023-11-21T06:08:59;41.22;;;29.08;;
52768;SDS011;40471;44.534;18.644;2023-11-21T06:11:25;51.30;;;34.93;;
52768;SDS011;40471;44.534;18.644;2023-11-21T06:13:51;59.93;;;39.90;;
52768;SDS011;40471;44.534;18.644;2023-11-21T06:16:19;62.15;;;35.40;;
52768;SDS011;40471;44.534;18.644;2023-11-21T06:18:46;69.53;;;32.08;;
52768;SDS011;40471;44.534;18.644;2023-11-21T06:21:11;54.10;;;36.13;;
52768;SDS011;40471;44.534;18.644;2023-11-21T06:23:38;55.28;;;37.35;;
52768;SDS011;40471;44.534;18.644;2023-11-21T06:26:04;83.30;;;38.90;;
52768;SDS011;40471;44.534;18.644;2023-11-21T06:28:31;62.40;;;44.53;;
52768;SDS011;40471;44.534;18.644;2023-11-21T06:30:57;82.53;;;53.30;;
52768;SDS011;40471;44.534;18.644;2023-11-21T06:33:23;96.78;;;53.22;;
52768;SDS011;40471;44.534;18.644;2023-11-21T06:35:52;98.47;;;59.55;;
52768;SDS011;40471;44.534;18.644;2023-11-21T06:38:18;87.73;;;52.63;;
52768;SDS011;40471;44.534;18.644;2023-11-21T06:40:44;106.28;;;59.22;;
52768;SDS011;40471;44.534;18.644;2023-11-21T06:43:10;106.93;;;60.97;;
52768;SDS011;40471;44.534;18.644;2023-11-21T06:45:36;94.93;;;57.73;;
52768;SDS011;40471;44.534;18.644;2023-11-21T06:48:02;78.40;;;53.77;;
52768;SDS011;40471;44.534;18.644;2023-11-21T06:50:27;55.13;;;34.23;;
52768;SDS011;40471;44.534;18.644;2023-11-21T06:52:53;76.23;;;46.10;;
52768;SDS011;40471;44.534;18.644;2023-11-21T06:55:19;65.20;;;41.90;;
52768;SDS011;40471;44.534;18.644;2023-11-21T06:57:44;67.63;;;40.27;;
52768;SDS011;40471;44.534;18.644;2023-11-21T07:00:12;57.08;;;37.50;;
52768;SDS011;40471;44.534;18.644;2023-11-21T07:05:04;61.53;;;39.97;;
52768;SDS011;40471;44.534;18.644;2023-11-21T07:07:30;56.55;;;34.85;;
52768;SDS011;40471;44.534;18.644;2023-11-21T07:09:56;54.23;;;34.30;;
52768;SDS011;40471;44.534;18.644;2023-11-21T07:12:22;63.70;;;40.20;;
52768;SDS011;40471;44.534;18.644;2023-11-21T07:14:50;82.82;;;51.00;;
52768;SDS011;40471;44.534;18.644;2023-11-21T07:17:17;78.35;;;51.35;;
52768;SDS011;40471;44.534;18.644;2023-11-21T07:19:45;82.68;;;53.55;;
52768;SDS011;40471;44.534;18.644;2023-11-21T07:22:21;70.43;;;50.03;;
52768;SDS011;40471;44.534;18.644;2023-11-21T07:25:14;65.43;;;46.13;;
52768;SDS011;40471;44.534;18.644;2023-11-21T07:28:09;51.42;;;33.95;;
52768;SDS011;40471;44.534;18.644;2023-11-21T07:30:35;64.07;;;28.25;;
52768;SDS011;40471;44.534;18.644;2023-11-21T07:33:01;42.63;;;31.30;;
52768;SDS011;40471;44.534;18.644;2023-11-21T07:35:26;43.93;;;28.33;;
52768;SDS011;40471;44.534;18.644;2023-11-21T07:37:52;37.23;;;29.03;;
52768;SDS011;40471;44.534;18.644;2023-11-21T07:40:18;39.50;;;30.00;;
52768;SDS011;40471;44.534;18.644;2023-11-21T07:42:43;53.87;;;31.00;;
52768;SDS011;40471;44.534;18.644;2023-11-21T07:45:09;57.73;;;27.20;;
52768;SDS011;40471;44.534;18.644;2023-11-21T07:47:36;60.50;;;37.45;;
52768;SDS011;40471;44.534;18.644;2023-11-21T07:50:04;52.53;;;36.88;;
52768;SDS011;40471;44.534;18.644;2023-11-21T07:52:32;38.75;;;30.35;;
52768;SDS011;40471;44.534;18.644;2023-11-21T07:54:58;56.00;;;36.65;;
52768;SDS011;40471;44.534;18.644;2023-11-21T07:57:24;43.67;;;29.03;;
52768;SDS011;40471;44.534;18.644;2023-11-21T08:02:19;43.55;;;30.50;;
52768;SDS011;40471;44.534;18.644;2023-11-21T08:04:45;57.65;;;39.17;;
52768;SDS011;40471;44.534;18.644;2023-11-21T08:07:14;92.43;;;54.13;;
52768;SDS011;40471;44.534;18.644;2023-11-21T08:09:42;94.80;;;61.63;;
52768;SDS011;40471;44.534;18.644;2023-11-21T08:12:09;102.97;;;63.88;;
52768;SDS011;40471;44.534;18.644;2023-11-21T08:14:36;93.30;;;56.58;;
52768;SDS011;40471;44.534;18.644;2023-11-21T08:17:04;98.68;;;59.60;;
52768;SDS011;40471;44.534;18.644;2023-11-21T08:19:32;76.28;;;56.78;;
52768;SDS011;40471;44.534;18.644;2023-11-21T08:22:03;89.95;;;55.33;;
52768;SDS011;40471;44.534;18.644;2023-11-21T08:24:30;72.18;;;46.38;;
52768;SDS011;40471;44.534;18.644;2023-11-21T08:26:56;81.67;;;51.20;;
52768;SDS011;40471;44.534;18.644;2023-11-21T08:29:23;69.53;;;47.25;;
52768;SDS011;40471;44.534;18.644;2023-11-21T08:31:49;75.17;;;43.30;;
52768;SDS011;40471;44.534;18.644;2023-11-21T08:34:15;92.40;;;59.70;;
52768;SDS011;40471;44.534;18.644;2023-11-21T08:36:41;80.63;;;56.03;;
52768;SDS011;40471;44.534;18.644;2023-11-21T08:39:08;74.85;;;50.28;;
52768;SDS011;40471;44.534;18.644;2023-11-21T08:41:34;56.38;;;38.33;;
52768;SDS011;40471;44.534;18.644;2023-11-21T08:44:01;68.63;;;46.42;;
52768;SDS011;40471;44.534;18.644;2023-11-21T08:46:31;73.57;;;50.15;;
52768;SDS011;40471;44.534;18.644;2023-11-21T08:48:57;64.70;;;47.93;;
52768;SDS011;40471;44.534;18.644;2023-11-21T08:51:22;50.20;;;36.67;;
52768;SDS011;40471;44.534;18.644;2023-11-21T08:53:48;50.53;;;29.43;;
52768;SDS011;40471;44.534;18.644;2023-11-21T08:56:18;41.23;;;29.43;;
52768;SDS011;40471;44.534;18.644;2023-11-21T08:58:46;53.13;;;31.90;;
52768;SDS011;40471;44.534;18.644;2023-11-21T09:01:16;62.63;;;36.53;;
52768;SDS011;40471;44.534;18.644;2023-11-21T09:03:44;57.80;;;35.53;;
52768;SDS011;40471;44.534;18.644;2023-11-21T09:06:11;51.95;;;35.40;;
52768;SDS011;40471;44.534;18.644;2023-11-21T09:08:37;51.03;;;36.85;;
52768;SDS011;40471;44.534;18.644;2023-11-21T09:11:04;54.10;;;37.80;;
52768;SDS011;40471;44.534;18.644;2023-11-21T09:13:33;61.85;;;43.15;;
52768;SDS011;40471;44.534;18.644;2023-11-21T09:18:25;68.18;;;45.80;;
52768;SDS011;40471;44.534;18.644;2023-11-21T09:20:53;57.63;;;44.60;;
52768;SDS011;40471;44.534;18.644;2023-11-21T09:23:19;77.67;;;54.33;;
52768;SDS011;40471;44.534;18.644;2023-11-21T09:25:46;90.38;;;57.97;;
52768;SDS011;40471;44.534;18.644;2023-11-21T09:28:15;66.07;;;43.50;;
52768;SDS011;40471;44.534;18.644;2023-11-21T09:30:44;61.70;;;40.70;;
52768;SDS011;40471;44.534;18.644;2023-11-21T09:33:09;75.33;;;44.30;;
52768;SDS011;40471;44.534;18.644;2023-11-21T09:35:38;73.53;;;47.03;;
52768;SDS011;40471;44.534;18.644;2023-11-21T09:38:04;72.65;;;45.95;;
52768;SDS011;40471;44.534;18.644;2023-11-21T09:40:35;59.28;;;39.88;;
52768;SDS011;40471;44.534;18.644;2023-11-21T09:43:06;76.25;;;38.67;;
52768;SDS011;40471;44.534;18.644;2023-11-21T09:45:43;79.07;;;42.25;;
52768;SDS011;40471;44.534;18.644;2023-11-21T09:48:32;63.75;;;49.45;;
52768;SDS011;40471;44.534;18.644;2023-11-21T09:51:05;53.70;;;34.80;;
52768;SDS011;40471;44.534;18.644;2023-11-21T09:53:33;45.35;;;32.90;;
52768;SDS011;40471;44.534;18.644;2023-11-21T09:56:01;42.25;;;35.42;;
52768;SDS011;40471;44.534;18.644;2023-11-21T09:58:27;43.63;;;29.23;;
52768;SDS011;40471;44.534;18.644;2023-11-21T10:00:55;36.15;;;25.85;;
52768;SDS011;40471;44.534;18.644;2023-11-21T10:03:25;40.50;;;29.40;;
52768;SDS011;40471;44.534;18.644;2023-11-21T10:05:53;35.83;;;26.13;;
52768;SDS011;40471;44.534;18.644;2023-11-21T10:08:24;33.83;;;22.08;;
52768;SDS011;40471;44.534;18.644;2023-11-21T10:11:11;35.72;;;23.60;;
52768;SDS011;40471;44.534;18.644;2023-11-21T10:13:40;41.58;;;23.33;;
52768;SDS011;40471;44.534;18.644;2023-11-21T10:16:06;29.25;;;21.30;;
52768;SDS011;40471;44.534;18.644;2023-11-21T10:18:37;27.58;;;17.70;;
52768;SDS011;40471;44.534;18.644;2023-11-21T10:21:05;35.78;;;21.50;;
52768;SDS011;40471;44.534;18.644;2023-11-21T10:23:32;20.20;;;15.93;;
52768;SDS011;40471;44.534;18.644;2023-11-21T10:25:58;28.30;;;18.77;;
52768;SDS011;40471;44.534;18.644;2023-11-21T10:28:26;40.90;;;22.77;;
52768;SDS011;40471;44.534;18.644;2023-11-21T10:30:53;33.63;;;24.55;;
52768;SDS011;40471;44.534;18.644;2023-11-21T10:33:21;38.87;;;26.53;;
52768;SDS011;40471;44.534;18.644;2023-11-21T10:35:53;58.25;;;38.67;;
52768;SDS011;40471;44.534;18.644;2023-11-21T10:38:21;65.60;;;46.08;;
52768;SDS011;40471;44.534;18.644;2023-11-21T10:40:49;19.80;;;17.15;;
52768;SDS011;40471;44.534;18.644;2023-11-21T10:43:22;18.35;;;12.23;;
52768;SDS011;40471;44.534;18.644;2023-11-21T10:45:50;18.63;;;13.23;;
52768;SDS011;40471;44.534;18.644;2023-11-21T10:58:28;18.33;;;13.20;;
52768;SDS011;40471;44.534;18.644;2023-11-21T11:01:14;14.27;;;10.38;;
52768;SDS011;40471;44.534;18.644;2023-11-21T11:03:44;24.23;;;15.73;;
52768;SDS011;40471;44.534;18.644;2023-11-21T11:06:10;37.97;;;16.00;;
52768;SDS011;40471;44.534;18.644;2023-11-21T11:08:38;28.20;;;16.48;;
52768;SDS011;40471;44.534;18.644;2023-11-21T11:11:06;22.48;;;14.43;;
52768;SDS011;40471;44.534;18.644;2023-11-21T11:13:32;17.88;;;14.30;;
52768;SDS011;40471;44.534;18.644;2023-11-21T11:15:59;27.65;;;20.42;;
52768;SDS011;40471;44.534;18.644;2023-11-21T11:18:30;27.45;;;13.20;;
52768;SDS011;40471;44.534;18.644;2023-11-21T11:36:00;15.10;;;12.07;;
52768;SDS011;40471;44.534;18.644;2023-11-21T11:38:31;18.73;;;10.67;;
52768;SDS011;40471;44.534;18.644;2023-11-21T11:41:04;14.75;;;9.15;;
52768;SDS011;40471;44.534;18.644;2023-11-21T11:43:31;13.60;;;10.82;;
52768;SDS011;40471;44.534;18.644;2023-11-21T11:46:09;21.98;;;11.82;;
52768;SDS011;40471;44.534;18.644;2023-11-21T11:48:38;22.00;;;14.48;;
52768;SDS011;40471;44.534;18.644;2023-11-21T11:51:10;16.67;;;10.95;;
52768;SDS011;40471;44.534;18.644;2023-11-21T11:53:40;19.83;;;11.90;;
52768;SDS011;40471;44.534;18.644;2023-11-21T11:59:02;15.05;;;11.32;;
52768;SDS011;40471;44.534;18.644;2023-11-21T12:01:30;28.90;;;12.10;;
52768;SDS011;40471;44.534;18.644;2023-11-21T12:07:00;16.65;;;10.65;;
52768;SDS011;40471;44.534;18.644;2023-11-21T12:09:28;13.38;;;8.02;;
52768;SDS011;40471;44.534;18.644;2023-11-21T12:11:56;25.15;;;12.23;;
52768;SDS011;40471;44.534;18.644;2023-11-21T12:14:22;13.10;;;8.93;;
52768;SDS011;40471;44.534;18.644;2023-11-21T12:16:48;18.17;;;8.32;;
52768;SDS011;40471;44.534;18.644;2023-11-21T12:19:14;13.52;;;7.03;;
52768;SDS011;40471;44.534;18.644;2023-11-21T12:21:41;15.30;;;11.02;;
52768;SDS011;40471;44.534;18.644;2023-11-21T12:24:08;15.23;;;11.02;;
52768;SDS011;40471;44.534;18.644;2023-11-21T12:26:34;14.20;;;7.33;;
52768;SDS011;40471;44.534;18.644;2023-11-21T12:29:01;10.82;;;7.55;;
52768;SDS011;40471;44.534;18.644;2023-11-21T12:31:29;12.57;;;8.98;;
52768;SDS011;40471;44.534;18.644;2023-11-21T12:33:56;21.55;;;12.98;;
52768;SDS011;40471;44.534;18.644;2023-11-21T12:38:49;16.33;;;10.30;;
52768;SDS011;40471;44.534;18.644;2023-11-21T12:41:16;16.20;;;8.77;;
52768;SDS011;40471;44.534;18.644;2023-11-21T12:43:42;26.08;;;11.48;;
52768;SDS011;40471;44.534;18.644;2023-11-21T12:46:10;20.83;;;13.07;;
52768;SDS011;40471;44.534;18.644;2023-11-21T12:48:41;22.27;;;13.40;;
52768;SDS011;40471;44.534;18.644;2023-11-21T12:51:12;25.65;;;16.45;;
52768;SDS011;40471;44.534;18.644;2023-11-21T12:53:44;21.58;;;15.00;;
52768;SDS011;40471;44.534;18.644;2023-11-21T12:56:18;19.08;;;14.80;;
52768;SDS011;40471;44.534;18.644;2023-11-21T12:58:53;24.02;;;14.30;;
52768;SDS011;40471;44.534;18.644;2023-11-21T13:01:25;21.73;;;11.82;;
52768;SDS011;40471;44.534;18.644;2023-11-21T13:03:58;14.77;;;8.70;;
52768;SDS011;40471;44.534;18.644;2023-11-21T13:06:26;17.90;;;9.40;;
52768;SDS011;40471;44.534;18.644;2023-11-21T13:08:56;10.70;;;7.22;;
52768;SDS011;40471;44.534;18.644;2023-11-21T13:11:24;14.98;;;8.73;;
52768;SDS011;40471;44.534;18.644;2023-11-21T13:13:52;15.50;;;8.43;;
52768;SDS011;40471;44.534;18.644;2023-11-21T13:16:19;15.85;;;9.13;;
52768;SDS011;40471;44.534;18.644;2023-11-21T13:18:48;20.40;;;10.02;;
52768;SDS011;40471;44.534;18.644;2023-11-21T13:21:15;13.48;;;7.78;;
52768;SDS011;40471;44.534;18.644;2023-11-21T13:23:44;13.75;;;9.27;;
52768;SDS011;40471;44.534;18.644;2023-11-21T13:26:11;10.20;;;6.90;;
52768;SDS011;40471;44.534;18.644;2023-11-21T13:28:40;16.98;;;9.32;;
52768;SDS011;40471;44.534;18.644;2023-11-21T13:31:12;15.80;;;13.07;;
52768;SDS011;40471;44.534;18.644;2023-11-21T13:33:51;17.65;;;12.10;;
52768;SDS011;40471;44.534;18.644;2023-11-21T13:36:24;16.83;;;11.88;;
52768;SDS011;40471;44.534;18.644;2023-11-21T13:38:51;26.92;;;14.98;;
52768;SDS011;40471;44.534;18.644;2023-11-21T13:41:19;34.20;;;16.95;;
52768;SDS011;40471;44.534;18.644;2023-11-21T13:43:53;27.67;;;18.15;;
52768;SDS011;40471;44.534;18.644;2023-11-21T13:46:36;22.70;;;14.35;;
52768;SDS011;40471;44.534;18.644;2023-11-21T13:49:03;31.75;;;21.30;;
52768;SDS011;40471;44.534;18.644;2023-11-21T13:51:34;24.08;;;15.45;;
52768;SDS011;40471;44.534;18.644;2023-11-21T13:54:14;35.80;;;20.17;;
52768;SDS011;40471;44.534;18.644;2023-11-21T13:56:41;33.75;;;18.85;;
52768;SDS011;40471;44.534;18.644;2023-11-21T13:59:12;35.33;;;19.65;;
52768;SDS011;40471;44.534;18.644;2023-11-21T14:01:54;9.00;;;5.95;;
52768;SDS011;40471;44.534;18.644;2023-11-21T14:04:22;11.40;;;6.82;;
52768;SDS011;40471;44.534;18.644;2023-11-21T14:06:56;14.00;;;7.63;;
52768;SDS011;40471;44.534;18.644;2023-11-21T14:09:26;12.52;;;7.72;;
52768;SDS011;40471;44.534;18.644;2023-11-21T14:12:08;16.88;;;6.38;;
52768;SDS011;40471;44.534;18.644;2023-11-21T14:14:39;16.98;;;5.95;;
52768;SDS011;40471;44.534;18.644;2023-11-21T14:17:06;12.07;;;10.55;;
52768;SDS011;40471;44.534;18.644;2023-11-21T14:19:35;18.65;;;7.15;;
52768;SDS011;40471;44.534;18.644;2023-11-21T14:22:07;14.45;;;7.82;;
52768;SDS011;40471;44.534;18.644;2023-11-21T14:24:35;14.77;;;7.93;;
52768;SDS011;40471;44.534;18.644;2023-11-21T14:30:03;16.17;;;10.18;;
52768;SDS011;40471;44.534;18.644;2023-11-21T14:32:30;15.27;;;11.48;;
52768;SDS011;40471;44.534;18.644;2023-11-21T14:34:56;25.10;;;15.10;;
52768;SDS011;40471;44.534;18.644;2023-11-21T14:37:25;22.73;;;12.55;;
52768;SDS011;40471;44.534;18.644;2023-11-21T14:39:54;20.90;;;13.60;;
52768;SDS011;40471;44.534;18.644;2023-11-21T14:42:23;23.30;;;13.80;;
52768;SDS011;40471;44.534;18.644;2023-11-21T14:44:54;17.98;;;12.23;;
52768;SDS011;40471;44.534;18.644;2023-11-21T14:47:26;32.08;;;17.17;;
52768;SDS011;40471;44.534;18.644;2023-11-21T14:49:52;18.00;;;13.82;;
52768;SDS011;40471;44.534;18.644;2023-11-21T14:52:19;21.23;;;12.37;;
52768;SDS011;40471;44.534;18.644;2023-11-21T14:54:56;20.50;;;13.73;;
52768;SDS011;40471;44.534;18.644;2023-11-21T14:57:42;30.90;;;16.63;;
52768;SDS011;40471;44.534;18.644;2023-11-21T15:00:18;27.05;;;15.32;;
52768;SDS011;40471;44.534;18.644;2023-11-21T15:03:17;22.10;;;15.10;;
52768;SDS011;40471;44.534;18.644;2023-11-21T15:06:12;32.20;;;19.48;;
52768;SDS011;40471;44.534;18.644;2023-11-21T15:08:49;19.17;;;15.10;;
52768;SDS011;40471;44.534;18.644;2023-11-21T15:11:32;30.67;;;16.75;;
52768;SDS011;40471;44.534;18.644;2023-11-21T15:14:00;34.38;;;19.98;;
52768;SDS011;40471;44.534;18.644;2023-11-21T15:16:34;53.97;;;31.48;;
52768;SDS011;40471;44.534;18.644;2023-11-21T15:19:07;62.55;;;37.13;;